createdAt,value
2022-11-21T00:00:57.011Z,44.90
2022-11-21T00:03:05.054Z,45.93
2022-11-21T00:05:13.788Z,45.65
2022-11-21T00:07:19.555Z,46.40
2022-11-21T00:09:30.055Z,48.71
2022-11-21T00:11:35.822Z,47.16
2022-11-21T00:13:42.628Z,46.67
2022-11-21T00:15:50.367Z,44.98
2022-11-21T00:18:14.416Z,48.86
2022-11-21T00:20:28.906Z,49.39
2022-11-21T00:22:41.314Z,52.18
2022-11-21T00:24:50.494Z,51.86
2022-11-21T00:26:58.906Z,51.54
2022-11-21T00:29:24.971Z,50.89
2022-11-21T00:31:31.538Z,49.44
2022-11-21T00:33:41.640Z,47.68
2022-11-21T00:35:51.024Z,47.57
2022-11-21T00:37:57.043Z,47.57
2022-11-21T00:40:20.031Z,46.46
2022-11-21T00:42:26.696Z,45.31
2022-11-21T00:44:38.805Z,45.12
2022-11-21T00:46:50.796Z,45.18
2022-11-21T00:48:57.722Z,44.72
2022-11-21T00:51:12.597Z,46.26
2022-11-21T00:53:18.653Z,46.93
2022-11-21T00:55:37.451Z,48.33
2022-11-21T00:57:43.406Z,48.07
2022-11-21T00:59:49.201Z,49.05
2022-11-21T01:01:56.221Z,50.83
2022-11-21T01:04:02.693Z,49.22
2022-11-21T01:06:13.776Z,49.65
2022-11-21T01:08:20.483Z,48.36
2022-11-21T01:10:26.195Z,48.65
2022-11-21T01:12:32.102Z,47.20
2022-11-21T01:14:38.860Z,48.14
2022-11-21T01:16:45.371Z,49.33
2022-11-21T01:18:52.471Z,49.92
2022-11-21T01:21:03.236Z,51.96
2022-11-21T01:23:11.799Z,47.78
2022-11-21T01:25:17.853Z,47.72
2022-11-21T01:27:26.108Z,56.44
2022-11-21T01:29:32.168Z,57.88
2022-11-21T01:31:38.637Z,60.47
2022-11-21T01:33:46.622Z,64.63
2022-11-21T01:35:52.374Z,65.39
2022-11-21T01:37:58.195Z,66.72
2022-11-21T01:40:08.643Z,66.28
2022-11-21T01:42:16.785Z,64.05
2022-11-21T01:44:27.297Z,63.49
2022-11-21T01:46:40.977Z,52.76
2022-11-21T01:49:15.974Z,51.62
2022-11-21T01:51:33.348Z,51.74
2022-11-21T01:53:45.463Z,52.27
2022-11-21T01:55:56.671Z,52.06
2022-11-21T01:58:04.763Z,56.84
2022-11-21T02:00:22.183Z,68.34
2022-11-21T02:02:35.970Z,58.40
2022-11-21T02:04:47.512Z,64.44
2022-11-21T02:06:55.405Z,62.80
2022-11-21T02:09:04.545Z,56.53
2022-11-21T02:11:24.883Z,44.35
2022-11-21T02:13:31.533Z,45.48
2022-11-21T02:15:41.602Z,43.92
2022-11-21T02:17:47.481Z,42.77
2022-11-21T02:20:01.075Z,44.05
2022-11-21T02:22:21.557Z,60.19
2022-11-21T02:24:41.457Z,47.59
2022-11-21T02:26:52.588Z,46.10
2022-11-21T02:39:53.048Z,53.13
2022-11-21T02:44:26.069Z,53.07
2022-11-21T02:46:34.504Z,53.03
2022-11-21T02:48:42.081Z,52.76
2022-11-21T02:50:50.653Z,52.70
2022-11-21T02:53:00.093Z,53.08
2022-11-21T02:55:06.126Z,50.90
2022-11-21T02:57:12.049Z,50.40
2022-11-21T02:59:21.389Z,48.21
2022-11-21T03:01:27.329Z,47.39
2022-11-21T03:03:36.568Z,45.25
2022-11-21T03:05:44.316Z,42.93
2022-11-21T03:07:50.632Z,41.16
2022-11-21T03:09:57.353Z,40.29
2022-11-21T03:12:09.946Z,39.94
2022-11-21T03:14:15.907Z,40.39
2022-11-21T03:16:24.537Z,42.47
2022-11-21T03:18:31.309Z,47.86
2022-11-21T03:23:11.423Z,45.36
2022-11-21T03:25:20.929Z,47.20
2022-11-21T03:27:38.985Z,51.38
2022-11-21T03:29:44.795Z,56.78
2022-11-21T03:32:04.171Z,57.98
2022-11-21T03:34:20.234Z,55.96
2022-11-21T03:36:26.162Z,58.53
2022-11-21T03:38:40.895Z,58.95
2022-11-21T03:40:46.600Z,60.05
2022-11-21T03:42:52.291Z,59.45
2022-11-21T03:44:59.044Z,57.66
2022-11-21T03:47:04.810Z,60.59
2022-11-21T03:49:11.807Z,77.10
2022-11-21T03:51:23.698Z,89.52
2022-11-21T03:53:29.442Z,72.77
2022-11-21T03:55:37.860Z,81.91
2022-11-21T03:57:44.639Z,65.46
2022-11-21T03:59:50.489Z,60.79
2022-11-21T04:06:31.579Z,62.79
2022-11-21T04:08:38.367Z,68.01
2022-11-21T04:10:50.298Z,57.20
2022-11-21T04:12:55.998Z,52.75
2022-11-21T04:15:02.862Z,54.78
2022-11-21T04:17:08.784Z,52.29
2022-11-21T04:19:14.840Z,53.04
2022-11-21T04:21:21.612Z,55.38
2022-11-21T04:23:31.544Z,59.71
2022-11-21T04:25:37.758Z,66.34
2022-11-21T04:27:44.378Z,71.73
2022-11-21T04:29:50.239Z,77.41
2022-11-21T04:31:56.134Z,74.02
2022-11-21T04:34:02.867Z,71.38
2022-11-21T04:36:17.015Z,72.42
2022-11-21T07:26:49.542Z,152.04
2022-11-21T07:28:56.719Z,149.46
2022-11-21T07:31:13.164Z,147.27
2022-11-21T07:33:23.786Z,139.44
2022-11-21T07:35:31.965Z,136.34
2022-11-21T07:37:42.470Z,140.30
2022-11-21T07:39:48.227Z,120.65
2022-11-21T07:41:57.336Z,141.04
2022-11-21T07:44:10.054Z,137.23
2022-11-21T07:46:36.327Z,125.63
2022-11-21T07:48:42.838Z,125.15
2022-11-21T07:50:48.464Z,125.33
2022-11-21T07:52:54.110Z,135.17
2022-11-21T07:55:02.537Z,135.31
2022-11-21T07:57:10.963Z,116.31
2022-11-21T07:59:19.416Z,103.03
2022-11-21T08:01:34.145Z,102.91
2022-11-21T08:03:39.933Z,105.96
2022-11-21T08:05:47.727Z,126.34
2022-11-21T08:07:55.483Z,140.73
2022-11-21T08:10:01.206Z,134.94
2022-11-21T08:12:26.485Z,130.01
2022-11-21T08:14:35.201Z,100.55
2022-11-21T08:16:56.487Z,99.30
2022-11-21T08:19:02.840Z,102.11
2022-11-21T16:19:04.260Z,50.49
2022-11-21T16:21:18.189Z,50.42
2022-11-21T16:23:23.909Z,50.17
2022-11-21T16:25:29.544Z,50.91
2022-11-21T16:27:36.338Z,49.81
2022-11-21T16:29:42.032Z,42.40
2022-11-21T16:31:55.313Z,43.94
2022-11-21T16:34:16.158Z,46.25
2022-11-21T16:36:26.747Z,45.62
2022-11-21T16:38:35.488Z,44.64
2022-11-21T16:40:42.435Z,43.31
2022-11-21T16:42:48.047Z,49.44
2022-11-21T16:44:56.153Z,56.18
2022-11-21T16:47:09.294Z,57.44
2022-11-21T16:49:23.766Z,71.28
2022-11-21T16:51:31.686Z,63.27
2022-11-21T16:53:38.171Z,55.76
2022-11-21T16:55:43.952Z,46.47
2022-11-21T16:57:49.830Z,45.27
2022-11-21T16:59:59.087Z,44.18
2022-11-21T17:02:07.831Z,46.79
2022-11-21T17:04:17.164Z,44.76
2022-11-21T17:06:31.262Z,42.45
2022-11-21T17:08:40.803Z,42.48
2022-11-21T17:10:46.585Z,47.85
2022-11-21T17:12:53.040Z,46.68
2022-11-21T17:14:58.678Z,48.55
2022-11-21T17:17:06.385Z,47.86
2022-11-21T17:19:16.456Z,45.92
2022-11-21T17:21:30.376Z,45.00
2022-11-21T17:23:41.925Z,43.27
2022-11-21T17:25:48.465Z,42.45
2022-11-21T17:27:54.249Z,45.18
2022-11-21T17:30:00.037Z,48.74
2022-11-21T17:32:09.384Z,47.31
2022-11-21T17:34:15.661Z,58.78
2022-11-21T17:36:24.720Z,57.41
2022-11-21T17:38:31.401Z,79.77
2022-11-21T17:40:39.777Z,66.20
2022-11-21T17:42:45.482Z,61.89
2022-11-21T17:44:52.075Z,54.97
2022-11-21T17:46:59.465Z,54.77
2022-11-21T17:49:05.474Z,54.44
2022-11-21T17:51:16.753Z,64.81
2022-11-21T17:53:22.576Z,69.52
2022-11-21T17:55:28.238Z,67.39
2022-11-21T17:57:37.330Z,64.71
2022-11-21T17:59:48.910Z,57.69
2022-11-21T18:01:54.725Z,60.03
2022-11-21T18:04:05.751Z,62.24
2022-11-21T18:06:17.748Z,59.23
2022-11-21T18:08:23.528Z,61.49
2022-11-21T18:10:43.375Z,68.06
2022-11-21T18:12:52.121Z,86.80
2022-11-21T18:14:57.800Z,68.69
2022-11-21T18:17:04.423Z,65.62
2022-11-21T18:19:10.666Z,73.10
2022-11-21T18:21:20.124Z,76.05
2022-11-21T18:34:57.566Z,68.27
2022-11-21T18:37:04.439Z,67.11
2022-11-21T18:39:14.806Z,75.05
2022-11-21T18:41:24.689Z,65.19
2022-11-21T18:43:31.423Z,60.73
2022-11-21T18:45:37.313Z,59.10
2022-11-21T18:47:43.852Z,56.73
2022-11-21T18:49:50.634Z,65.01
2022-11-21T18:51:59.810Z,71.44
2022-11-21T18:54:10.623Z,74.50
2022-11-21T18:56:19.176Z,80.31
2022-11-21T18:58:27.300Z,74.35
2022-11-21T19:00:33.258Z,73.34
2022-11-21T19:02:39.989Z,77.72
2022-11-21T19:04:45.941Z,81.61
2022-11-21T19:06:51.906Z,76.09
2022-11-21T19:09:08.520Z,71.43
2022-11-21T19:11:17.842Z,70.00
2022-11-21T19:13:24.048Z,68.50
2022-11-21T19:17:53.953Z,71.91
2022-11-21T19:22:32.125Z,75.39
2022-11-21T19:24:40.688Z,74.59
2022-11-21T19:26:47.169Z,74.06
2022-11-21T19:29:19.376Z,74.38
2022-11-21T19:31:25.247Z,67.51
2022-11-21T19:33:33.517Z,62.13
2022-11-21T19:35:40.989Z,64.19
2022-11-21T19:37:47.275Z,60.21
2022-11-21T19:39:55.781Z,60.78
2022-11-21T19:42:02.635Z,60.21
2022-11-21T19:44:08.890Z,58.25
2022-11-21T19:46:31.314Z,56.23
2022-11-21T19:48:38.275Z,64.88
2022-11-21T19:50:49.956Z,66.60
2022-11-21T19:52:58.304Z,76.97
2022-11-21T19:55:09.710Z,88.78
2022-11-21T19:57:16.068Z,80.88
2022-11-21T19:59:23.110Z,81.31
2022-11-21T20:01:34.074Z,79.39
2022-11-21T20:03:43.935Z,82.00
2022-11-21T20:05:52.342Z,89.46
2022-11-21T20:08:04.930Z,84.43
2022-11-21T20:10:17.927Z,73.44
2022-11-21T20:12:24.460Z,69.79
2022-11-21T20:14:31.678Z,72.80
2022-11-21T20:16:41.543Z,66.96
2022-11-21T20:18:47.881Z,68.39
2022-11-21T20:20:55.303Z,74.52
2022-11-21T20:23:01.739Z,75.60
2022-11-21T20:25:09.368Z,71.63
2022-11-21T20:27:19.052Z,85.47
2022-11-21T20:29:25.348Z,77.51
2022-11-21T20:31:35.291Z,68.88
2022-11-21T20:33:45.685Z,74.99
2022-11-21T20:35:51.783Z,76.53
2022-11-21T20:37:57.998Z,69.27
2022-11-21T20:40:05.275Z,69.05
2022-11-21T20:42:11.487Z,71.86
2022-11-21T20:44:57.059Z,71.84
2022-11-21T20:46:51.658Z,71.19
2022-11-21T20:49:01.275Z,72.47
2022-11-21T20:53:53.156Z,67.55
2022-11-21T20:56:05.573Z,68.86
2022-11-21T20:58:12.559Z,76.65
2022-11-21T21:00:23.077Z,82.24
2022-11-21T21:02:29.105Z,79.96
2022-11-21T21:04:35.274Z,77.52
2022-11-21T21:06:43.737Z,87.25
2022-11-21T21:08:51.429Z,86.77
2022-11-21T21:11:16.556Z,77.53
2022-11-21T21:13:33.753Z,71.34
2022-11-21T21:15:43.041Z,70.84
2022-11-21T21:17:51.474Z,72.69
2022-11-21T21:19:58.758Z,73.75
2022-11-21T21:22:05.217Z,83.61
2022-11-21T21:24:15.467Z,113.65
2022-11-21T21:26:26.421Z,92.09
2022-11-21T21:28:33.915Z,90.61
2022-11-21T21:30:45.329Z,99.64
2022-11-21T21:32:52.295Z,106.80
2022-11-21T21:34:59.366Z,115.33
2022-11-21T21:37:06.779Z,105.39
2022-11-21T21:39:15.188Z,108.20
2022-11-21T21:41:21.838Z,105.04
2022-11-21T21:43:27.929Z,107.51
2022-11-21T21:45:35.648Z,98.65
2022-11-21T21:47:44.368Z,102.87
2022-11-21T21:49:50.996Z,107.64
2022-11-21T21:51:58.010Z,97.61
2022-11-21T21:54:04.058Z,98.49
2022-11-21T21:56:11.576Z,113.02
2022-11-21T21:58:18.431Z,186.50
2022-11-21T22:00:24.764Z,146.71
2022-11-21T22:02:30.910Z,148.70
2022-11-21T22:04:40.559Z,156.07
2022-11-21T22:06:46.833Z,146.16
2022-11-21T22:08:54.606Z,131.06
2022-11-21T22:11:07.669Z,115.54
2022-11-21T22:13:14.414Z,122.15
2022-11-21T22:15:20.595Z,126.39
2022-11-21T22:17:28.172Z,124.17
2022-11-21T22:19:34.720Z,114.35
2022-11-21T22:21:43.869Z,128.78
2022-11-21T22:24:17.778Z,127.19
2022-11-21T22:26:19.476Z,128.20
2022-11-21T22:28:25.699Z,133.53
2022-11-21T22:30:32.691Z,131.72
2022-11-21T22:32:39.256Z,126.92
2022-11-21T22:34:45.424Z,121.71
2022-11-21T22:36:55.067Z,119.27
2022-11-21T22:39:01.184Z,117.29
2022-11-21T22:41:10.798Z,113.75
2022-11-21T22:43:17.768Z,120.05
2022-11-21T22:45:24.018Z,121.29
2022-11-21T22:47:30.141Z,120.09
2022-11-21T22:49:37.020Z,117.88
2022-11-21T22:51:43.329Z,105.23
2022-11-21T22:53:53.916Z,95.84
2022-11-21T22:56:03.879Z,101.45
2022-11-21T22:58:10.384Z,102.80
2022-11-21T23:00:19.602Z,105.01
2022-11-21T23:02:26.784Z,111.22
2022-11-21T23:04:35.142Z,96.20
2022-11-21T23:06:41.911Z,92.66
2022-11-21T23:08:53.126Z,100.62
2022-11-21T23:11:06.577Z,99.64
2022-11-21T23:13:12.752Z,112.49
2022-11-21T23:15:20.279Z,118.93
2022-11-21T23:17:26.645Z,116.62
2022-11-21T23:19:32.818Z,120.27
2022-11-21T23:21:39.861Z,108.18
2022-11-21T23:23:46.945Z,102.52
2022-11-21T23:25:56.970Z,97.36
2022-11-21T23:28:03.981Z,89.14
2022-11-21T23:30:12.934Z,102.69
